• Join FlightAware (Why Join?)
  • Login
  • US Flag 
06:36AM EDT


 

Airport Tracker/Info


-or-


 

Live Flight TrackerFlight Track Log ✈ AAL1459 ✈ 07-May-2013 ✈ KBOS - KORD

Flight Track Log - Related Links

Times and Time Zones

All times are in EDT time to prevent confusion due to time zone crossing. See the AAL1459 flight status page for this flight to view local times or setup timezone preferences in your user account.

Time Position Orientation Groundspeed Altitude Reporting Facility
EDT Latitude Longitude Course Direction KTS MPH feet Rate Location/Type
03:17PM 42.3670 -70.9450 80° East 184 212 1,700  Level FlightAware
03:18PM 42.3740 -70.9050 77° East 228 262 2,400 1,980 Climbing FlightAware
03:18PM 42.3780 -70.8840 76° East 237 273 3,200 3,000 Climbing FlightAware
03:19PM 42.3840 -70.8480 77° East 245 282 4,400 2,580 Climbing FlightAware
03:19PM 42.4000 -70.8040 64° Northeast 275 316 5,600 2,940 Climbing FlightAware
03:20PM 42.4270 -70.7770 36° Northeast 271 312 7,100 3,300 Climbing FlightAware
03:20PM 42.4430 -70.7660 27° Northeast 284 327 7,800 2,760 Climbing FlightAware
03:20PM 42.4820 -70.7780 347° North 286 329 9,200 2,820 Climbing FlightAware
03:21PM 42.5110 -70.8020 329° Northwest 300 345 10,400 1,740 Climbing FlightAware
03:21PM 42.5500 -70.8640 311° West 346 398 11,100 1,800 Climbing FlightAware
03:22PM 42.5960 -70.9450 308° West 371 427 13,000 2,820 Climbing FlightAware
03:23PM 42.6390 -71.0210 308° West 378 435 15,100 3,000 Climbing FlightAware
03:24PM 42.6840 -71.1070 305° West 381 438 17,300 3,000 Climbing FlightAware
03:24PM 42.6930 -71.1440 288° West 386 444 18,100 2,580 Climbing FlightAware
03:24PM 42.7050 -71.2440 279° West 400 460 19,700 2,280 Climbing FlightAware
03:25PM 42.7160 -71.3430 279° West 410 472 21,200 2,160 Climbing FlightAware
03:26PM 42.7260 -71.4390 278° West 417 480 22,600 2,220 Climbing FlightAware
03:27PM 42.7400 -71.5650 279° West 426 490 24,400 2,100 Climbing FlightAware
03:27PM 42.7500 -71.6597 279° West 418 481 25,500 1,680 Climbing Boston Center
03:33PM 42.8470 -72.5630 279° West 439 505 34,800 1,620 Climbing FlightAware
03:33PM 42.8570 -72.6630 278° West 440 506 35,600 720 Climbing FlightAware
03:34PM 42.8660 -72.7660 277° West 439 505 35,800 900 Climbing FlightAware
03:35PM 42.8890 -72.9830 278° West 437 503 37,500 1,140 Climbing FlightAware
03:36PM 42.9000 -73.0960 278° West 436 502 38,000 300 Climbing FlightAware
03:36PM 42.8870 -72.9600 97° East 38,000  Level FlightAware
03:37PM 42.9140 -73.2400 278° West 439 505 38,000  Level FlightAware
03:38PM 42.9270 -73.3710 278° West 441 507 38,000  Level FlightAware
03:38PM 42.9350 -73.4560 277° West 443 510 38,000  Level FlightAware
03:39PM 42.9470 -73.5820 277° West 445 512 38,000  Level FlightAware
03:39PM 42.9470 -73.5910 270° West 445 512 38,000  Level FlightAware
03:40PM 42.9690 -73.8280 277° West 446 513 38,000  Level FlightAware
03:41PM 42.9810 -73.9530 278° West 446 513 38,000  Level FlightAware
03:42PM 42.9950 -74.1100 277° West 446 513 38,000  Level FlightAware
03:43PM 43.0040 -74.2210 276° West 446 513 38,000  Level FlightAware
03:43PM 43.0020 -74.1880 95° East 446 513 38,000  Level FlightAware
03:44PM 43.0250 -74.4560 277° West 447 514 38,000  Level FlightAware
03:45PM 43.0350 -74.5680 277° West 446 513 38,000  Level FlightAware
03:45PM 43.0440 -74.6780 276° West 446 513 38,000  Level FlightAware
03:46PM 43.0520 -74.7830 276° West 446 513 38,000  Level FlightAware
03:47PM 43.0630 -74.9190 276° West 447 514 38,000  Level FlightAware
03:48PM 43.0730 -75.0350 277° West 447 514 38,000  Level FlightAware
03:48PM 43.0810 -75.1430 276° West 448 516 38,000  Level FlightAware
03:49PM 43.0910 -75.2720 276° West 449 517 38,000  Level FlightAware
03:50PM 43.1000 -75.3800 277° West 450 518 38,000  Level FlightAware
03:50PM 43.1100 -75.5060 276° West 452 520 38,000  Level FlightAware
03:51PM 43.1190 -75.6250 276° West 453 521 38,000  Level FlightAware
03:52PM 43.1280 -75.7460 276° West 454 522 38,000  Level FlightAware
03:52PM 43.1370 -75.8690 276° West 455 524 38,000  Level FlightAware
03:53PM 43.1460 -75.9980 276° West 455 524 38,000  Level FlightAware
03:54PM 43.1540 -76.1110 276° West 455 524 38,000  Level FlightAware
03:55PM 43.1570 -76.2400 272° West 453 521 38,000  Level FlightAware
03:55PM 43.1480 -76.3530 264° West 454 522 38,000  Level FlightAware
03:56PM 43.1420 -76.4210 263° West 454 522 38,000  Level FlightAware
03:56PM 43.1310 -76.5540 264° West 453 521 38,000  Level FlightAware
03:57PM 43.1200 -76.6680 263° West 453 521 38,000  Level FlightAware
03:58PM 43.1110 -76.7800 264° West 453 521 38,000  Level FlightAware
03:59PM 43.0990 -76.9070 263° West 453 521 38,000  Level FlightAware
03:59PM 43.0890 -77.0200 263° West 453 521 38,000  Level FlightAware
04:00PM 43.0810 -77.1370 265° West 456 525 38,000  Level FlightAware
04:01PM 43.0830 -77.2650 271° West 456 525 38,000  Level FlightAware
04:01PM 43.0840 -77.3820 271° West 457 526 38,000  Level FlightAware
04:02PM 43.0850 -77.5090 271° West 459 528 38,000  Level FlightAware
04:03PM 43.0860 -77.6280 271° West 460 529 38,000  Level FlightAware
04:03PM 43.0870 -77.7570 271° West 461 531 38,000  Level FlightAware
04:04PM 43.0870 -77.8750 270° West 463 533 38,000  Level FlightAware
04:05PM 43.0880 -77.9910 271° West 463 533 38,000  Level FlightAware
04:06PM 43.0890 -78.1230 271° West 463 533 38,000  Level FlightAware
04:06PM 43.0890 -78.2420 270° West 464 534 38,000  Level FlightAware
04:07PM 43.0890 -78.3710 270° West 464 534 38,000  Level FlightAware
04:08PM 43.0890 -78.4840 270° West 464 534 38,000  Level FlightAware
04:09PM 43.0890 -78.6600 270° West 464 534 38,000  Level FlightAware
04:09PM 43.0880 -78.7760 269° West 464 534 38,000  Level FlightAware
04:10PM 43.0880 -78.9060 270° West 464 534 38,000  Level FlightAware
04:11PM 43.0880 -79.0210 270° West 465 535 38,000  Level FlightAware
04:11PM 43.0870 -79.1580 269° West 466 536 38,000  Level FlightAware
04:12PM 43.0860 -79.2900 269° West 467 537 38,000  Level FlightAware
04:13PM 43.0850 -79.4080 269° West 468 539 38,000  Level FlightAware
04:13PM 43.0840 -79.5270 269° West 468 539 38,000  Level FlightAware
04:14PM 43.0830 -79.6590 269° West 468 539 38,000  Level FlightAware
04:15PM 43.0810 -79.7770 269° West 468 539 38,000  Level FlightAware
04:16PM 43.0800 -79.9110 269° West 468 539 38,000  Level FlightAware
04:16PM 43.0780 -80.0140 269° West 468 539 38,000  Level FlightAware
04:17PM 43.0760 -80.1460 269° West 468 539 38,000  Level FlightAware
04:18PM 43.0750 -80.2790 269° West 468 539 38,000  Level FlightAware
04:19PM 43.0720 -80.4430 269° West 468 539 38,000  Level FlightAware
04:19PM 43.0690 -80.5610 268° West 468 539 38,000  Level FlightAware
04:20PM 43.0670 -80.6940 269° West 467 537 38,000  Level FlightAware
04:21PM 43.0650 -80.8060 269° West 467 537 38,000  Level FlightAware
04:21PM 43.0630 -80.9170 269° West 467 537 38,000  Level FlightAware
04:22PM 43.0600 -81.0470 268° West 468 539 38,000  Level FlightAware
04:23PM 43.0570 -81.1670 268° West 468 539 38,000  Level FlightAware
04:24PM 43.0540 -81.2980 268° West 469 540 38,000  Level FlightAware
04:24PM 43.0510 -81.4120 268° West 469 540 38,000  Level FlightAware
04:25PM 43.0470 -81.5510 268° West 470 541 38,000  Level FlightAware
04:26PM 43.0440 -81.6690 268° West 470 541 38,000  Level FlightAware
04:26PM 43.0410 -81.7810 268° West 471 542 38,000  Level FlightAware
04:27PM 43.0370 -81.9210 268° West 471 542 38,000  Level FlightAware
04:28PM 43.0330 -82.0500 268° West 471 542 38,000  Level FlightAware
04:28PM 43.0290 -82.1660 267° West 471 542 38,000  Level FlightAware
04:29PM 43.0250 -82.2800 267° West 472 543 38,000  Level FlightAware
04:30PM 43.0200 -82.4230 267° West 471 542 38,000  Level FlightAware
04:30PM 43.0170 -82.5250 268° West 471 542 38,000 -240 Level FlightAware
04:31PM 43.0120 -82.6640 267° West 470 541 37,700 -660 Descending FlightAware
04:32PM 43.0060 -82.8120 267° West 472 543 36,900 -900 Descending FlightAware
04:33PM 43.0010 -82.9520 267° West 474 545 36,200 -960 Descending FlightAware
04:34PM 42.9960 -83.0660 267° West 473 544 35,600 -1,020 Descending FlightAware
04:34PM 42.9910 -83.1910 267° West 474 545 34,900 -960 Descending FlightAware
04:35PM 42.9870 -83.2910 267° West 472 543 34,400 -1,020 Descending FlightAware
04:36PM 42.9810 -83.4270 267° West 475 547 33,600 -960 Descending FlightAware
04:36PM 42.9750 -83.5720 267° West 477 549 32,900 -1,020 Descending FlightAware
04:37PM 42.9680 -83.7230 266° West 480 552 32,100 -720 Descending FlightAware
04:38PM 42.9590 -83.8320 264° West 480 552 32,000 -120 Descending FlightAware
04:38PM 42.9450 -83.9740 262° West 481 554 32,000  Level FlightAware
04:39PM 42.9330 -84.0960 262° West 482 555 32,000  Level FlightAware
04:40PM 42.9200 -84.2300 262° West 482 555 32,000  Level FlightAware
04:41PM 42.9080 -84.3500 262° West 482 555 32,000  Level FlightAware
04:41PM 42.8940 -84.4850 262° West 482 555 32,000  Level FlightAware
04:42PM 42.8820 -84.6060 262° West 481 554 32,000  Level FlightAware
04:43PM 42.8690 -84.7270 262° West 480 552 32,000  Level FlightAware
04:43PM 42.8550 -84.8640 262° West 480 552 32,000  Level FlightAware
04:44PM 42.8430 -84.9820 262° West 480 552 32,000  Level FlightAware
04:45PM 42.8280 -85.1170 261° West 480 552 32,000  Level FlightAware
04:45PM 42.8160 -85.2350 262° West 481 554 32,000  Level FlightAware
04:46PM 42.8020 -85.3550 261° West 481 554 32,000 -300 Level FlightAware
04:47PM 42.7870 -85.4900 261° West 478 550 31,600 -1,320 Descending FlightAware
04:48PM 42.7670 -85.6060 257° West 472 543 30,200 -2,400 Descending FlightAware
04:48PM 42.7470 -85.7210 257° West 461 531 28,400 -2,580 Descending FlightAware
04:49PM 42.7250 -85.8430 256° West 446 513 26,600 -2,580 Descending FlightAware
04:50PM 42.7050 -85.9500 256° West 436 502 24,800 -2,700 Descending FlightAware
04:50PM 42.6840 -86.0660 256° West 430 495 22,800 -2,700 Descending FlightAware
04:51PM 42.6640 -86.1720 256° West 425 489 21,000 -2,520 Descending FlightAware
04:52PM 42.6450 -86.2750 256° West 407 468 19,500 -1,920 Descending FlightAware
04:52PM 42.6250 -86.3850 256° West 393 452 18,300 -1,500 Descending FlightAware
04:53PM 42.6070 -86.4800 256° West 389 448 17,400 -1,440 Descending FlightAware
04:54PM 42.5900 -86.5690 255° West 383 441 16,400 -1,560 Descending FlightAware
04:55PM 42.5700 -86.6770 256° West 376 433 15,200 -1,500 Descending FlightAware
04:55PM 42.5490 -86.7670 252° West 369 425 14,300 -1,380 Descending FlightAware
04:56PM 42.5270 -86.8490 250° West 362 417 13,400 -1,440 Descending FlightAware
04:57PM 42.5010 -86.9450 250° West 360 414 12,300 -1,440 Descending FlightAware
04:57PM 42.4780 -87.0280 249° West 359 413 11,400 -1,320 Descending FlightAware
04:58PM 42.4510 -87.1270 250° West 356 410 10,500 -1,020 Descending FlightAware
04:59PM 42.4290 -87.2090 250° West 340 391 10,000 -540 Descending FlightAware
04:59PM 42.4140 -87.2630 249° West 308 354 9,900 -180 Descending FlightAware
04:59PM 42.4060 -87.2910 249° West 299 344 9,900  Level FlightAware
05:00PM 42.3940 -87.3330 249° West 294 338 9,900  Level FlightAware
05:00PM 42.3810 -87.3820 250° West 271 312 9,900  Level FlightAware
05:01PM 42.3700 -87.4210 249° West 254 292 9,900  Level FlightAware
05:01PM 42.3590 -87.4620 250° West 226 260 9,900  Level FlightAware
05:02PM 42.3480 -87.4990 248° West 214 246 9,900  Level FlightAware
05:02PM 42.3380 -87.5290 246° West 214 246 9,900  Level FlightAware
05:02PM 42.3270 -87.5460 229° Southwest 213 245 9,900  Level FlightAware
05:03PM 42.3070 -87.5670 218° Southwest 212 244 9,900  Level FlightAware
05:03PM 42.2840 -87.5920 219° Southwest 212 244 9,900  Level FlightAware
05:04PM 42.2730 -87.6040 219° Southwest 212 244 9,900  Level FlightAware
05:04PM 42.2530 -87.6250 218° Southwest 213 245 9,900  Level FlightAware
05:05PM 42.2300 -87.6490 218° Southwest 212 244 9,900  Level FlightAware
05:05PM 42.2190 -87.6610 219° Southwest 213 245 9,900  Level FlightAware
05:05PM 42.1990 -87.6820 218° Southwest 214 246 9,900  Level FlightAware
05:06PM 42.1760 -87.7060 218° Southwest 215 247 9,900  Level FlightAware
05:06PM 42.1560 -87.7270 218° Southwest 215 247 9,900 -480 Level FlightAware
05:07PM 42.1320 -87.7520 218° Southwest 215 247 9,500 -1,020 Descending FlightAware
05:07PM 42.1100 -87.7750 218° Southwest 216 249 8,900 -1,320 Descending FlightAware
05:08PM 42.0950 -87.8020 233° Southwest 214 246 8,300 -1,380 Descending FlightAware
05:08PM 42.0920 -87.8200 257° West 211 243 8,000 -1,080 Descending FlightAware
05:08PM 42.0920 -87.8600 270° West 206 237 7,500 -1,020 Descending FlightAware
05:09PM 42.0920 -87.8920 270° West 205 236 7,100 -660 Descending FlightAware
05:09PM 42.0920 -87.9300 270° West 202 232 6,900 -240 Descending FlightAware
05:10PM 42.0920 -87.9650 270° West 202 232 6,900  Level FlightAware
05:10PM 42.0920 -87.9990 270° West 198 228 6,900 -120 Level FlightAware
05:11PM 42.0910 -88.0340 268° West 196 226 6,800 -720 Descending FlightAware
05:11PM 42.0910 -88.0530 270° West 196 226 6,400 -1,380 Descending FlightAware
05:11PM 42.0920 -88.0830 273° West 198 228 5,900 -1,200 Descending FlightAware
05:11PM 42.0920 -88.0950 270° West 198 228 5,700 -1,380 Descending FlightAware
05:12PM 42.0910 -88.1420 268° West 196 226 4,900 -1,200 Descending FlightAware
05:12PM 42.0900 -88.1540 264° West 195 224 4,800 -1,080 Descending FlightAware
05:13PM 42.0910 -88.1900 272° West 202 232 4,200 -1,080 Descending FlightAware
05:13PM 42.0910 -88.2000 270° West 201 231 4,100 -840 Descending FlightAware
05:13PM 42.0810 -88.2230 240° Southwest 197 227 3,800 -600 Descending FlightAware
05:13PM 42.0730 -88.2290 209° Southwest 198 228 3,800 300 Level FlightAware
05:14PM 42.0640 -88.2300 185° South 191 220 3,900 120 Climbing FlightAware
05:14PM 42.0340 -88.2290 179° South 184 212 3,900  Level FlightAware
05:14PM 42.0230 -88.2200 149° Southeast 177 204 3,900  Level FlightAware
05:15PM 42.0190 -88.2130 128° Southeast 177 204 3,900 -600 Level FlightAware
05:15PM 42.0070 -88.1830 118° Southeast 176 203 3,500 -840 Descending FlightAware
05:15PM 42.0020 -88.1690 116° Southeast 176 203 3,300 -480 Descending FlightAware
05:16PM 41.9950 -88.1440 111° Southeast 171 197 3,200 -480 Descending FlightAware
05:16PM 41.9870 -88.1120 109° East 174 200 2,900 -600 Descending FlightAware
05:17PM 41.9840 -88.0820 98° East 171 197 2,600 -600 Descending FlightAware
05:17PM 41.9840 -88.0700 90° East 171 197 2,500 -540 Descending FlightAware
05:17PM 41.9840 -88.0470 90° East 173 199 2,300 -600 Descending FlightAware
05:18PM 41.9840 -88.0080 90° East 165 190 1,900 -720 Descending FlightAware
05:18PM 41.9840 -87.9840 90° East 147 169 1,600 -900 Descending FlightAware
05:19PM 41.9840 -87.9690 90° East 141 162 1,300 -840 Descending FlightAware
05:19PM 41.9840 -87.9380 90° East 143 165 900 -660 Descending FlightAware
05:19PM 41.9840 -87.9230 90° East 140 161 700 -600 Descending FlightAware